Time;durP1;ratioP1;P1;durP2;ratioP2;P2;SDS_P1;SDS_P2;PMS_P1;PMS_P2;Temp;Humidity;BMP_temperature;BMP_pressure;BME280_temperature;BME280_humidity;BME280_pressure;Samples;Min_cycle;Max_cycle;Signal;HPM_P1;HPM_P2
2022/09/13 00:00:36;;;;;;;;;;;;;;;22.63;73.97;100826.31;7280976;19;152296;-56
2022/09/13 00:03:03;;;;;;;;;;;;;;;22.62;74.33;100827.47;7284400;19;152251;-56
2022/09/13 00:05:30;;;;;;;;;;;;;;;22.66;74.25;100833.31;7288403;19;154149;-56
2022/09/13 00:07:57;;;;;;;;;;;;;;;22.67;75.03;100829.31;7285468;19;153503;-56
2022/09/13 00:10:27;;;;;;;;;;;;;;;22.72;74.11;100832.00;7280503;19;153716;-56
2022/09/13 00:12:54;;;;;;;;;;;;;;;22.75;74.36;100841.81;7282816;19;152479;-56
2022/09/13 00:15:21;;;;;;;;;;;;;;;22.74;74.21;100849.44;7283329;19;153464;-56
2022/09/13 00:17:49;;;;;;;;;;;;;;;22.74;74.37;100854.22;7283506;19;152824;-56
2022/09/13 00:20:16;;;;;;;;;;;;;;;22.75;74.45;100864.34;7282218;19;152195;-56
2022/09/13 00:22:43;;;;;;;;;;;;;;;22.76;74.73;100858.38;7284118;19;152918;-56
2022/09/13 00:25:10;;;;;;;;;;;;;;;22.75;74.93;100868.00;7282283;19;153390;-56
2022/09/13 00:27:41;;;;;;;;;;;;;;;22.73;75.33;100861.84;7287965;19;152056;-56
2022/09/13 00:30:08;;;;;;;;;;;;;;;22.74;74.95;100866.31;7282204;19;154495;-56
2022/09/13 00:32:35;;;;;;;;;;;;;;;22.74;75.58;100862.69;7283065;19;152000;-56
2022/09/13 00:35:03;;;;;;;;;;;;;;;22.72;75.60;100864.97;7283793;19;153577;-56
2022/09/13 00:37:32;;;;;;;;;;;;;;;22.74;75.64;100865.50;7281606;19;153772;-56
2022/09/13 00:40:18;;;;;;;;;;;;;;;22.74;75.58;100871.13;7284357;19;153998;-56
2022/09/13 00:42:46;;;;;;;;;;;;;;;22.73;75.30;100869.47;7279860;19;152331;-56
2022/09/13 00:45:14;;;;;;;;;;;;;;;22.73;75.64;100861.84;7276612;19;153852;-56
2022/09/13 00:47:50;;;;;;;;;;;;;;;22.74;76.09;100871.13;7288378;19;153053;-56
2022/09/13 00:50:27;;;;;;;;;;;;;;;22.73;76.12;100864.66;7283029;19;154706;-56
2022/09/13 00:52:59;;;;;;;;;;;;;;;22.72;76.59;100862.16;7282647;19;151709;-56
2022/09/13 00:55:49;;;;;;;;;;;;;;;22.74;76.49;100866.31;7282450;19;152244;-56
2022/09/13 00:58:28;;;;;;;;;;;;;;;22.74;76.61;100863.50;7279010;19;153433;-57
2022/09/13 01:00:58;;;;;;;;;;;;;;;22.76;76.97;100851.94;7280959;19;152022;-56
2022/09/13 01:03:27;;;;;;;;;;;;;;;22.76;76.96;100857.56;7282629;19;152157;-56
2022/09/13 01:06:00;;;;;;;;;;;;;;;22.76;77.47;100851.94;7281239;19;154170;-56
2022/09/13 01:08:30;;;;;;;;;;;;;;;22.76;77.45;100849.13;7283713;19;153682;-55
2022/09/13 01:10:59;;;;;;;;;;;;;;;22.76;77.25;100849.13;7290614;19;152808;-56
2022/09/13 01:13:32;;;;;;;;;;;;;;;22.75;77.62;100844.63;7280194;19;152649;-56
2022/09/13 01:16:04;;;;;;;;;;;;;;;22.76;78.02;100846.28;7282735;19;151981;-56
2022/09/13 01:18:31;;;;;;;;;;;;;;;22.75;78.06;100837.00;7281476;19;154279;-56
2022/09/13 01:21:14;;;;;;;;;;;;;;;22.75;78.16;100839.81;7281245;19;152120;-56
2022/09/13 01:23:41;;;;;;;;;;;;;;;22.77;77.96;100834.69;7281881;19;153176;-56
2022/09/13 01:26:24;;;;;;;;;;;;;;;22.77;78.43;100834.69;7282125;19;152765;-56
2022/09/13 01:28:51;;;;;;;;;;;;;;;22.79;78.49;100834.38;7279650;19;152416;-56
2022/09/13 01:31:18;;;;;;;;;;;;;;;22.78;78.33;100838.34;7282371;19;153496;-56
2022/09/13 01:33:45;;;;;;;;;;;;;;;22.79;78.08;100835.19;7287262;19;153697;-56
2022/09/13 01:36:22;;;;;;;;;;;;;;;22.79;78.19;100840.00;7284478;19;153429;-57
2022/09/13 01:38:51;;;;;;;;;;;;;;;22.78;78.06;100839.16;7280986;19;153508;-57
2022/09/13 01:41:18;;;;;;;;;;;;;;;22.79;78.19;100840.00;7282324;19;152211;-56
2022/09/13 01:43:57;;;;;;;;;;;;;;;22.79;78.03;100842.81;7279167;19;153200;-57
2022/09/13 01:46:30;;;;;;;;;;;;;;;22.79;78.02;100845.63;7275845;19;153009;-56
2022/09/13 01:49:06;;;;;;;;;;;;;;;22.78;77.83;100839.16;7277270;19;152590;-57
2022/09/13 01:51:35;;;;;;;;;;;;;;;22.79;78.48;100837.19;7281958;19;153538;-57
2022/09/13 01:54:17;;;;;;;;;;;;;;;22.78;78.57;100836.34;7280150;19;154126;-56
2022/09/13 01:56:57;;;;;;;;;;;;;;;22.79;78.81;100838.00;7286995;19;152891;-56
2022/09/13 01:59:39;;;;;;;;;;;;;;;22.79;78.62;100826.75;7279495;19;154220;-56
2022/09/13 02:02:26;;;;;;;;;;;;;;;22.80;78.17;100824.75;7279227;19;152964;-56
2022/09/13 02:05:13;;;;;;;;;;;;;;;22.81;78.24;100830.06;7278232;19;152275;-56
2022/09/13 02:07:42;;;;;;;;;;;;;;;22.80;78.16;100830.41;7278596;19;153175;-56
2022/09/13 02:10:13;;;;;;;;;;;;;;;22.80;78.21;100830.41;7279724;19;153001;-56
2022/09/13 02:12:42;;;;;;;;;;;;;;;22.82;78.31;100828.06;7278311;19;152356;-56
2022/09/13 02:15:14;;;;;;;;;;;;;;;22.82;78.32;100828.06;7257831;19;153835;-57
2022/09/13 02:17:45;;;;;;;;;;;;;;;22.83;77.83;100829.72;7277608;19;151881;-57
2022/09/13 02:20:15;;;;;;;;;;;;;;;22.81;78.28;100834.84;7286619;19;154009;-57
2022/09/13 02:22:46;;;;;;;;;;;;;;;22.81;78.49;100840.50;7277945;19;152452;-57
2022/09/13 02:25:14;;;;;;;;;;;;;;;22.81;78.84;100829.22;7280835;19;153698;-56
2022/09/13 02:27:44;;;;;;;;;;;;;;;22.81;78.55;100840.50;7275615;19;152233;-56
2022/09/13 02:30:11;;;;;;;;;;;;;;;22.81;78.11;100840.50;7278495;19;153141;-56
2022/09/13 02:32:40;;;;;;;;;;;;;;;22.80;78.22;100834.03;7280163;19;152902;-56
2022/09/13 02:35:30;;;;;;;;;;;;;;;22.80;78.35;100836.88;7277836;19;152938;-56
2022/09/13 02:38:01;;;;;;;;;;;;;;;22.79;78.56;100835.19;7281008;19;152381;-56
2022/09/13 02:40:31;;;;;;;;;;;;;;;22.79;78.50;100828.72;7279914;19;152868;-56
2022/09/13 02:43:01;;;;;;;;;;;;;;;22.79;78.35;100831.56;7281944;19;154595;-57
2022/09/13 02:45:32;;;;;;;;;;;;;;;22.79;78.67;100826.75;7276836;19;152371;-56
2022/09/13 02:48:04;;;;;;;;;;;;;;;22.81;79.24;100837.66;7275218;19;152872;-56
2022/09/13 02:50:40;;;;;;;;;;;;;;;22.81;78.92;100837.66;7279736;19;152481;-56
2022/09/13 02:53:25;;;;;;;;;;;;;;;22.81;78.98;100837.66;7286833;19;153499;-56
2022/09/13 02:56:12;;;;;;;;;;;;;;;22.82;79.33;100839.34;7285014;19;152973;-57
2022/09/13 02:58:50;;;;;;;;;;;;;;;22.82;78.81;100833.69;7283126;19;152110;-56
2022/09/13 03:01:20;;;;;;;;;;;;;;;22.82;79.01;100833.69;7286165;19;151817;-57
2022/09/13 03:03:47;;;;;;;;;;;;;;;22.81;79.22;100832.03;7290606;19;154015;-56
2022/09/13 03:06:24;;;;;;;;;;;;;;;22.81;79.13;100832.03;7286833;19;153089;-56
2022/09/13 03:08:52;;;;;;;;;;;;;;;22.82;78.98;100833.69;7284609;19;154492;-56
2022/09/13 03:11:34;;;;;;;;;;;;;;;22.82;79.37;100833.69;7286856;19;151766;-56
2022/09/13 03:14:01;;;;;;;;;;;;;;;22.80;79.17;100836.03;7282934;19;153345;-57
2022/09/13 03:16:42;;;;;;;;;;;;;;;22.81;79.27;100835.69;7282886;19;154359;-56
2022/09/13 03:19:28;;;;;;;;;;;;;;;22.83;79.21;100841.00;7280865;19;151887;-57
2022/09/13 03:21:55;;;;;;;;;;;;;;;22.84;78.96;100846.31;7285691;19;151715;-57
2022/09/13 03:24:25;;;;;;;;;;;;;;;22.83;79.58;100839.03;7284264;19;153392;-57
2022/09/13 03:26:56;;;;;;;;;;;;;;;22.82;79.46;100843.00;7293949;19;152256;-57
2022/09/13 03:29:54;;;;;;;;;;;;;;;22.83;79.19;100841.84;7282848;19;153543;-56
2022/09/13 03:32:35;;;;;;;;;;;;;;;22.83;79.57;100835.38;7282641;19;152772;-56
2022/09/13 03:35:06;;;;;;;;;;;;;;;22.82;79.43;100848.63;7285187;19;153080;-57
2022/09/13 03:37:33;;;;;;;;;;;;;;;22.83;79.80;100855.09;7284722;19;153378;-57
2022/09/13 03:40:14;;;;;;;;;;;;;;;22.83;79.45;100853.09;7286192;19;152070;-57
2022/09/13 03:43:07;;;;;;;;;;;;;;;22.82;79.27;100859.06;7280427;19;152560;-57
2022/09/13 03:45:51;;;;;;;;;;;;;;;22.83;79.35;100861.56;7282544;19;152795;-57
2022/09/13 03:48:36;;;;;;;;;;;;;;;22.83;79.30;100874.81;7281219;19;151865;-57
2022/09/13 03:51:21;;;;;;;;;;;;;;;22.84;79.61;100868.03;7292608;19;152308;-57
2022/09/13 03:53:55;;;;;;;;;;;;;;;22.83;79.22;100864.38;7283810;19;154682;-57
2022/09/13 03:56:22;;;;;;;;;;;;;;;22.83;79.36;100869.19;7286645;19;152771;-57
2022/09/13 03:58:50;;;;;;;;;;;;;;;22.83;79.27;100858.75;7280879;19;153441;-57
2022/09/13 04:01:22;;;;;;;;;;;;;;;22.83;79.52;100860.72;7285952;19;151956;-57
2022/09/13 04:03:49;;;;;;;;;;;;;;;22.83;79.35;100867.19;7279858;19;152008;-57
2022/09/13 04:06:22;;;;;;;;;;;;;;;22.82;79.43;100854.25;7284024;19;153756;-56
2022/09/13 04:08:49;;;;;;;;;;;;;;;22.83;79.20;100857.91;7282504;19;152421;-57
2022/09/13 04:11:16;;;;;;;;;;;;;;;22.83;79.35;100860.72;7285144;19;153028;-56
2022/09/13 04:13:43;;;;;;;;;;;;;;;22.82;79.73;100862.72;7287725;19;152297;-57
2022/09/13 04:16:10;;;;;;;;;;;;;;;22.82;79.86;100878.78;7284488;19;152661;-56
2022/09/13 04:18:48;;;;;;;;;;;;;;;22.83;79.75;100869.19;7275697;19;154798;-56
2022/09/13 04:21:37;;;;;;;;;;;;;;;22.83;80.12;100869.19;7284603;19;152023;-56
2022/09/13 04:24:27;;;;;;;;;;;;;;;22.83;80.39;100891.72;7281374;19;152435;-56
2022/09/13 04:27:06;;;;;;;;;;;;;;;22.83;80.28;100895.38;7280280;19;152391;-56
2022/09/13 04:29:36;;;;;;;;;;;;;;;22.83;80.68;100895.38;7283298;19;152601;-56
2022/09/13 04:32:10;;;;;;;;;;;;;;;22.83;80.37;100889.72;7283421;19;152085;-56
2022/09/13 04:34:39;;;;;;;;;;;;;;;22.83;80.85;100892.53;7281215;19;152603;-56
2022/09/13 04:37:08;;;;;;;;;;;;;;;22.84;80.61;100897.03;7291454;19;153448;-57
2022/09/13 04:39:35;;;;;;;;;;;;;;;22.84;81.10;100907.47;7283583;19;154483;-56
2022/09/13 04:42:02;;;;;;;;;;;;;;;22.84;80.86;100904.66;7282488;19;152124;-56
2022/09/13 04:44:30;;;;;;;;;;;;;;;22.84;81.23;100911.13;7281112;19;152170;-55
2022/09/13 04:46:58;;;;;;;;;;;;;;;22.85;81.04;100906.31;7278808;19;152469;-56
2022/09/13 04:49:25;;;;;;;;;;;;;;;22.84;81.68;100913.09;7277778;19;154528;-56
2022/09/13 04:51:52;;;;;;;;;;;;;;;22.84;81.71;100899.84;7284302;19;152709;-56
2022/09/13 04:54:20;;;;;;;;;;;;;;;22.84;81.39;100902.66;7280478;19;152568;-56
2022/09/13 04:56:48;;;;;;;;;;;;;;;22.85;81.96;100909.94;7282214;19;154778;-56
2022/09/13 04:59:15;;;;;;;;;;;;;;;22.85;81.92;100907.13;7287443;19;153242;-56
2022/09/13 05:01:42;;;;;;;;;;;;;;;22.85;82.39;100906.31;7283366;19;153018;-56
2022/09/13 05:04:10;;;;;;;;;;;;;;;22.85;81.91;100906.31;7281285;19;153793;-56
2022/09/13 05:06:37;;;;;;;;;;;;;;;22.85;81.73;100906.31;7282318;19;153705;-56
2022/09/13 05:09:04;;;;;;;;;;;;;;;22.85;81.65;100912.75;7282190;19;152869;-56
2022/09/13 05:11:31;;;;;;;;;;;;;;;;;;7283290;19;153460;-56
2022/09/13 05:13:59;;;;;;;;;;;;;;;22.86;82.16;100913.59;7275713;19;181149;-57
2022/09/13 05:16:25;;;;;;;;;;;;;;;;;;7283308;19;154387;-57
2022/09/13 05:19:00;;;;;;;;;;;;;;;22.84;82.21;100905.50;7283605;19;180394;-57
2022/09/13 05:21:35;;;;;;;;;;;;;;;22.84;82.01;100905.50;7276757;19;152159;-56
2022/09/13 05:24:02;;;;;;;;;;;;;;;22.85;81.96;100906.31;7278751;19;153578;-57
2022/09/13 05:26:32;;;;;;;;;;;;;;;22.85;82.04;100907.13;7281734;19;153829;-56
2022/09/13 05:28:59;;;;;;;;;;;;;;;22.85;82.17;100912.75;7277346;19;152167;-56
2022/09/13 05:31:29;;;;;;;;;;;;;;;22.84;81.88;100905.50;7283096;19;152813;-56
2022/09/13 05:33:57;;;;;;;;;;;;;;;22.85;82.12;100907.13;7279398;19;153650;-56
2022/09/13 05:36:25;;;;;;;;;;;;;;;22.86;82.06;100916.41;7282949;19;153809;-56
2022/09/13 05:38:53;;;;;;;;;;;;;;;22.86;82.19;100902.31;7281850;19;152491;-56
2022/09/13 05:41:40;;;;;;;;;;;;;;;22.85;82.22;100906.31;7290345;19;155855;-56
2022/09/13 05:44:07;;;;;;;;;;;;;;;22.83;82.15;100903.81;7275670;19;153077;-56
2022/09/13 05:46:39;;;;;;;;;;;;;;;22.85;82.00;100906.31;7281562;19;152378;-56
2022/09/13 05:49:09;;;;;;;;;;;;;;;22.84;82.09;100908.31;7277487;19;152255;-56
2022/09/13 05:51:38;;;;;;;;;;;;;;;22.85;82.20;100912.75;7276904;19;152747;-57
2022/09/13 05:54:05;;;;;;;;;;;;;;;22.84;82.19;100907.47;7280078;19;153465;-57
2022/09/13 05:56:31;;;;;;;;;;;;;;;22.84;82.17;100899.00;7282335;19;152232;-56
2022/09/13 05:58:59;;;;;;;;;;;;;;;22.85;82.22;100903.50;7277442;19;152814;-57
2022/09/13 06:01:27;;;;;;;;;;;;;;;22.84;82.25;100904.66;7280964;19;153519;-56
2022/09/13 06:03:55;;;;;;;;;;;;;;;22.84;82.21;100908.31;7285333;19;153905;-56
2022/09/13 06:06:23;;;;;;;;;;;;;;;22.84;82.30;100910.28;7280291;19;153357;-56
2022/09/13 06:08:54;;;;;;;;;;;;;;;22.84;82.31;100905.50;7280068;19;152148;-56
2022/09/13 06:11:21;;;;;;;;;;;;;;;22.84;82.53;100904.66;7281555;19;152764;-56
2022/09/13 06:13:49;;;;;;;;;;;;;;;22.84;82.14;100911.13;7276642;19;153466;-57
2022/09/13 06:16:16;;;;;;;;;;;;;;;22.84;82.11;100910.28;7280001;19;152026;-56
2022/09/13 06:18:44;;;;;;;;;;;;;;;22.89;83.44;100912.97;7278505;19;152441;-57
2022/09/13 06:21:16;;;;;;;;;;;;;;;22.90;82.62;100917.41;7273882;19;153172;-56
2022/09/13 06:23:44;;;;;;;;;;;;;;;22.88;82.23;100909.31;7278203;19;152247;-56
2022/09/13 06:26:11;;;;;;;;;;;;;;;;;;7289257;19;153098;-56
2022/09/13 06:28:46;;;;;;;;;;;;;;;;;;7282471;19;160610;-56
2022/09/13 06:31:15;;;;;;;;;;;;;;;22.85;82.59;100912.75;7286731;19;182855;-56
2022/09/13 06:33:42;;;;;;;;;;;;;;;22.85;82.24;100909.13;7285109;19;153985;-56
2022/09/13 06:36:11;;;;;;;;;;;;;;;22.85;82.52;100918.38;7287450;19;152323;-56
2022/09/13 06:38:48;;;;;;;;;;;;;;;22.84;82.18;100913.94;7286590;19;153494;-56
2022/09/13 06:41:19;;;;;;;;;;;;;;;22.77;79.29;100916.38;7287776;19;154739;-56
2022/09/13 06:43:49;;;;;;;;;;;;;;;22.72;73.92;100908.06;7281755;19;152027;-56
2022/09/13 06:46:17;;;;;;;;;;;;;;;22.75;76.83;100907.44;7287487;19;155654;-57
2022/09/13 06:48:51;;;;;;;;;;;;;;;22.63;71.46;100907.16;7289779;19;154122;-57
2022/09/13 06:51:24;;;;;;;;;;;;;;;22.61;69.84;100913.13;7283607;19;153063;-57
2022/09/13 06:53:55;;;;;;;;;;;;;;;22.54;69.20;100912.75;7284095;19;153930;-57
2022/09/13 06:56:29;;;;;;;;;;;;;;;22.52;68.35;100902.97;7286313;19;152488;-57
2022/09/13 06:58:58;;;;;;;;;;;;;;;22.50;68.38;100900.47;7283404;19;153378;-57
2022/09/13 07:01:30;;;;;;;;;;;;;;;22.48;68.61;100902.78;7286199;19;152868;-57
2022/09/13 07:04:04;;;;;;;;;;;;;;;22.43;68.14;100905.75;7281906;19;151729;-57
2022/09/13 07:06:33;;;;;;;;;;;;;;;22.42;68.23;100906.91;7286924;19;152681;-57
2022/09/13 07:09:01;;;;;;;;;;;;;;;22.41;68.02;100899.59;7283118;19;153826;-56
2022/09/13 07:11:30;;;;;;;;;;;;;;;22.39;67.86;100901.91;7295214;19;151689;-57
2022/09/13 07:13:58;;;;;;;;;;;;;;;22.40;67.28;100900.75;7279202;19;153350;-57
2022/09/13 07:16:27;;;;;;;;;;;;;;;22.38;67.35;100902.22;7285976;19;155041;-57
2022/09/13 07:19:04;;;;;;;;;;;;;;;22.36;67.06;100894.09;7285290;19;153500;-57
2022/09/13 07:21:35;;;;;;;;;;;;;;;22.37;67.30;100890.13;7285798;19;154033;-57
2022/09/13 07:24:03;;;;;;;;;;;;;;;22.33;67.15;100889.13;7281618;19;152180;-57
2022/09/13 07:26:30;;;;;;;;;;;;;;;22.34;67.29;100889.94;7286629;19;153701;-57
2022/09/13 07:28:58;;;;;;;;;;;;;;;22.36;67.76;100891.28;7281130;19;153215;-57
2022/09/13 07:31:30;;;;;;;;;;;;;;;22.32;68.02;100889.44;7293667;19;151546;-56
2022/09/13 07:34:00;;;;;;;;;;;;;;;22.28;65.17;100891.22;7281360;19;152855;-56
2022/09/13 07:36:28;;;;;;;;;;;;;;;22.26;64.79;100890.75;7285326;19;152545;-57
2022/09/13 07:38:55;;;;;;;;;;;;;;;22.28;63.86;100891.22;7283426;19;153781;-56
2022/09/13 07:41:23;;;;;;;;;;;;;;;22.23;63.63;100883.75;7283129;19;153729;-57
2022/09/13 07:43:50;;;;;;;;;;;;;;;22.22;63.32;100887.72;7280104;19;152064;-57
2022/09/13 07:46:21;;;;;;;;;;;;;;;22.22;63.06;100884.06;7286490;19;153178;-57
2022/09/13 07:48:50;;;;;;;;;;;;;;;22.22;64.32;100881.25;7282960;19;154486;-57
2022/09/13 07:51:18;;;;;;;;;;;;;;;22.24;66.03;100884.59;7282307;19;151900;-57
2022/09/13 07:53:46;;;;;;;;;;;;;;;22.23;66.07;100892.19;7288075;19;152342;-57
2022/09/13 07:56:14;;;;;;;;;;;;;;;22.24;66.70;100904.28;7286031;19;154556;-56
2022/09/13 07:58:49;;;;;;;;;;;;;;;22.25;67.16;100897.50;7281626;19;154422;-56
2022/09/13 08:01:48;;;;;;;;;;;;;;;22.25;67.56;100892.72;7284115;19;152812;-56
2022/09/13 08:04:17;;;;;;;;;;;;;;;22.24;67.43;100893.88;7279276;19;153242;-56
2022/09/13 08:06:45;;;;;;;;;;;;;;;22.22;68.08;100906.56;7285918;19;156196;-57
2022/09/13 08:09:12;;;;;;;;;;;;;;;22.23;68.18;100891.34;7283370;19;153371;-57
2022/09/13 08:11:40;;;;;;;;;;;;;;;22.22;67.82;100898.13;7285527;19;153522;-57
2022/09/13 08:14:08;;;;;;;;;;;;;;;22.21;68.36;100897.34;7281349;19;153778;-57
2022/09/13 08:16:35;;;;;;;;;;;;;;;22.21;68.07;100899.31;7290200;19;152691;-56
2022/09/13 08:19:03;;;;;;;;;;;;;;;22.20;68.25;100895.66;7283618;19;153347;-56
2022/09/13 08:21:31;;;;;;;;;;;;;;;22.20;68.16;100890.03;7284363;19;154180;-57
2022/09/13 08:23:59;;;;;;;;;;;;;;;22.19;68.31;100888.38;7282184;19;152485;-57
2022/09/13 08:26:27;;;;;;;;;;;;;;;22.21;68.74;100890.88;7284513;19;154492;-57
2022/09/13 08:28:57;;;;;;;;;;;;;;;22.20;68.58;100892.84;7280565;19;154294;-57
2022/09/13 08:31:25;;;;;;;;;;;;;;;22.20;68.53;100904.09;7283987;19;151888;-56
2022/09/13 08:33:52;;;;;;;;;;;;;;;22.21;68.67;100907.75;7282586;19;153325;-56
2022/09/13 08:36:19;;;;;;;;;;;;;;;22.21;68.77;100908.59;7283257;19;153378;-56
2022/09/13 08:38:53;;;;;;;;;;;;;;;22.20;68.66;100898.47;7291424;19;152530;-57
2022/09/13 08:41:38;;;;;;;;;;;;;;;22.20;68.67;100895.66;7283288;19;152810;-56
2022/09/13 08:44:25;;;;;;;;;;;;;;;22.21;68.75;100896.50;7279107;19;152222;-57
2022/09/13 08:46:55;;;;;;;;;;;;;;;22.21;68.52;100908.59;7283828;19;153089;-57
2022/09/13 08:49:29;;;;;;;;;;;;;;;22.20;68.24;100909.72;7280375;19;153826;-57
2022/09/13 08:52:02;;;;;;;;;;;;;;;22.21;68.45;100908.59;7280626;19;152512;-56
2022/09/13 08:54:28;;;;;;;;;;;;;;;22.21;68.35;100902.97;7279307;19;154323;-57
2022/09/13 08:57:12;;;;;;;;;;;;;;;22.22;68.51;100892.50;7281580;19;153562;-56
2022/09/13 09:00:01;;;;;;;;;;;;;;;22.21;68.65;100886.06;7282144;19;152324;-57
2022/09/13 09:02:37;;;;;;;;;;;;;;;22.22;68.30;100898.13;7289847;19;153464;-56
2022/09/13 09:05:10;;;;;;;;;;;;;;;22.22;68.59;100896.16;7279839;19;155610;-57
2022/09/13 09:07:43;;;;;;;;;;;;;;;22.23;68.58;100895.00;7282694;19;153485;-56
2022/09/13 09:10:12;;;;;;;;;;;;;;;22.23;68.63;100892.19;7280059;19;153160;-57
2022/09/13 09:12:46;;;;;;;;;;;;;;;22.23;68.62;100900.63;7280609;19;152092;-56
2022/09/13 09:15:16;;;;;;;;;;;;;;;22.24;68.53;100901.47;7281525;19;154651;-56
2022/09/13 09:17:52;;;;;;;;;;;;;;;22.23;68.64;100889.38;7281926;19;153040;-57
2022/09/13 09:20:19;;;;;;;;;;;;;;;22.23;68.50;100892.19;7282651;19;153503;-56
2022/09/13 09:22:47;;;;;;;;;;;;;;;22.25;68.38;100897.50;7282862;19;153384;-56
2022/09/13 09:25:14;;;;;;;;;;;;;;;22.25;68.69;100886.25;7286254;19;152197;-56
2022/09/13 09:27:40;;;;;;;;;;;;;;;22.25;68.22;100886.25;7280986;19;153159;-57
2022/09/13 09:30:13;;;;;;;;;;;;;;;22.24;68.47;100876.97;7280987;19;154088;-57
2022/09/13 09:33:04;;;;;;;;;;;;;;;22.24;68.62;100884.59;7282424;19;152216;-57
2022/09/13 09:35:31;;;;;;;;;;;;;;;22.24;68.64;100873.31;7281758;19;153207;-56
2022/09/13 09:38:20;;;;;;;;;;;;;;;22.23;68.63;100868.84;7281188;19;152362;-56
2022/09/13 09:40:46;;;;;;;;;;;;;;;22.24;68.31;100867.69;7281060;19;152483;-57
2022/09/13 09:43:25;;;;;;;;;;;;;;;22.23;68.63;100869.69;7281081;19;152611;-56
2022/09/13 09:45:53;;;;;;;;;;;;;;;22.25;68.61;100863.75;7286945;19;152691;-56
2022/09/13 09:48:23;;;;;;;;;;;;;;;22.24;68.34;100864.88;7282345;19;152197;-56
2022/09/13 09:50:51;;;;;;;;;;;;;;;22.24;68.59;100874.16;7279577;19;154275;-57
2022/09/13 09:53:27;;;;;;;;;;;;;;;22.24;68.45;100860.09;7278710;19;153025;-56
2022/09/13 09:56:16;;;;;;;;;;;;;;;22.24;68.26;100862.91;7279426;19;155281;-56
2022/09/13 09:58:52;;;;;;;;;;;;;;;22.25;68.18;100875.84;7277727;19;152868;-56
2022/09/13 10:01:18;;;;;;;;;;;;;;;22.25;68.05;100880.63;7283000;19;152202;-57
2022/09/13 10:03:50;;;;;;;;;;;;;;;22.25;68.47;100878.66;7286553;19;153873;-56
2022/09/13 10:06:27;;;;;;;;;;;;;;;22.26;68.36;100887.94;7286940;19;153774;-55
2022/09/13 10:08:55;;;;;;;;;;;;;;;22.25;68.03;100880.63;7293395;19;152260;-56
2022/09/13 10:11:26;;;;;;;;;;;;;;;22.26;68.09;100882.28;7287167;19;154755;-56
2022/09/13 10:14:00;;;;;;;;;;;;;;;22.25;68.26;100881.47;7285212;19;152667;-56
2022/09/13 10:16:28;;;;;;;;;;;;;;;22.25;67.99;100892.72;7286375;19;152599;-57
2022/09/13 10:19:21;;;;;;;;;;;;;;;22.25;68.00;100897.50;7285145;19;153470;-57
2022/09/13 10:22:14;;;;;;;;;;;;;;;22.24;68.10;100896.69;7288710;19;152254;-57
2022/09/13 10:24:40;;;;;;;;;;;;;;;22.25;68.39;100908.78;7285680;19;153419;-56
2022/09/13 10:27:30;;;;;;;;;;;;;;;22.24;68.47;100912.72;7286031;19;153666;-56
2022/09/13 10:29:59;;;;;;;;;;;;;;;22.25;67.98;100918.06;7284422;19;152297;-56
2022/09/13 10:32:27;;;;;;;;;;;;;;;22.24;68.08;100916.38;7294334;19;151945;-56
2022/09/13 10:34:55;;;;;;;;;;;;;;;22.24;68.02;100921.19;7285803;19;152472;-57
2022/09/13 10:37:25;;;;;;;;;;;;;;;22.24;68.15;100916.38;7285952;19;153025;-57
2022/09/13 10:39:58;;;;;;;;;;;;;;;22.25;68.31;100931.28;7286695;19;153997;-56
2022/09/13 10:42:26;;;;;;;;;;;;;;;22.24;67.92;100924.81;7283492;19;152240;-57
2022/09/13 10:44:55;;;;;;;;;;;;;;;22.24;68.03;100924.00;7285128;19;153259;-57
2022/09/13 10:47:40;;;;;;;;;;;;;;;22.25;68.30;100929.31;7286076;19;153569;-56
2022/09/13 10:50:23;;;;;;;;;;;;;;;22.24;68.03;100927.63;7286593;19;152263;-56
2022/09/13 10:52:57;;;;;;;;;;;;;;;22.24;67.92;100944.53;7287694;19;153446;-56
2022/09/13 10:55:26;;;;;;;;;;;;;;;22.23;68.16;100937.22;7289012;19;153341;-56
2022/09/13 10:58:01;;;;;;;;;;;;;;;22.23;68.18;100939.22;7284394;19;155055;-56
2022/09/13 11:00:34;;;;;;;;;;;;;;;22.21;68.41;100933.91;7284767;19;154002;-56
2022/09/13 11:03:03;;;;;;;;;;;;;;;22.22;67.99;100934.72;7286110;19;152616;-57
2022/09/13 11:05:44;;;;;;;;;;;;;;;22.24;68.42;100929.63;7284384;19;152914;-56
2022/09/13 11:08:16;;;;;;;;;;;;;;;22.23;68.25;100925.13;7285002;19;152531;-57
2022/09/13 11:11:01;;;;;;;;;;;;;;;22.23;68.03;100925.13;7287049;19;151990;-57
2022/09/13 11:13:47;;;;;;;;;;;;;;;22.23;68.47;100917.53;7283380;19;153683;-58
2022/09/13 11:16:25;;;;;;;;;;;;;;;22.23;68.04;100922.31;7285020;19;153987;-57
2022/09/13 11:19:07;;;;;;;;;;;;;;;22.24;68.26;100918.34;7292095;19;152014;-57
2022/09/13 11:21:46;;;;;;;;;;;;;;;22.23;68.48;100925.97;7285868;19;154853;-57
2022/09/13 11:24:25;;;;;;;;;;;;;;;22.23;68.32;100925.97;7284585;19;152378;-57
2022/09/13 11:26:51;;;;;;;;;;;;;;;22.24;68.62;100922.00;7286572;19;151939;-57
2022/09/13 11:29:21;;;;;;;;;;;;;;;22.23;68.21;100917.53;7281019;19;153332;-58
2022/09/13 11:31:57;;;;;;;;;;;;;;;22.24;68.49;100919.19;7287024;19;152045;-57
2022/09/13 11:34:32;;;;;;;;;;;;;;;22.25;68.58;100918.06;7283549;19;153470;-57
2022/09/13 11:36:58;;;;;;;;;;;;;;;22.26;68.16;100919.69;7283409;19;152384;-57
2022/09/13 11:39:25;;;;;;;;;;;;;;;22.26;68.36;100918.88;7293992;19;152275;-57
2022/09/13 11:41:51;;;;;;;;;;;;;;;22.26;68.48;100925.31;7284712;19;154496;-57
2022/09/13 11:44:25;;;;;;;;;;;;;;;22.26;68.39;100916.88;7282854;19;152626;-57
2022/09/13 11:46:52;;;;;;;;;;;;;;;22.27;68.61;100915.72;7285083;19;153214;-57
2022/09/13 11:49:25;;;;;;;;;;;;;;;22.26;68.61;100918.88;7283247;19;154301;-57
2022/09/13 11:51:51;;;;;;;;;;;;;;;22.26;68.60;100921.69;7285889;19;152294;-57
2022/09/13 11:54:36;;;;;;;;;;;;;;;22.26;68.31;100930.16;7283408;19;153501;-57
2022/09/13 11:57:15;;;;;;;;;;;;;;;22.26;68.25;100930.94;7280477;19;153615;-57
2022/09/13 11:59:44;;;;;;;;;;;;;;;22.26;68.58;100928.13;7284547;19;152933;-57
2022/09/13 12:02:17;;;;;;;;;;;;;;;22.25;68.48;100929.31;7292238;19;153353;-57
2022/09/13 12:04:51;;;;;;;;;;;;;;;22.27;68.63;100935.44;7279679;19;153610;-57
2022/09/13 12:07:46;;;;;;;;;;;;;;;22.27;68.69;100940.22;7285034;19;154972;-58
2022/09/13 12:10:22;;;;;;;;;;;;;;;22.26;68.70;100939.38;7282187;19;154188;-57
2022/09/13 12:12:50;;;;;;;;;;;;;;;22.26;68.45;100942.22;7282118;19;152072;-57
2022/09/13 12:15:20;;;;;;;;;;;;;;;22.27;68.25;100943.03;7280980;19;152921;-57
2022/09/13 12:18:04;;;;;;;;;;;;;;;22.27;68.43;100955.13;7284103;19;152717;-57
2022/09/13 12:20:34;;;;;;;;;;;;;;;22.28;68.45;100948.38;7283985;19;151980;-57
2022/09/13 12:23:04;;;;;;;;;;;;;;;22.29;68.23;100952.84;7284216;19;153759;-57
2022/09/13 12:25:36;;;;;;;;;;;;;;;22.30;68.52;100939.59;7286899;19;153426;-57
2022/09/13 12:28:10;;;;;;;;;;;;;;;22.32;68.38;100942.91;7281997;19;153511;-57
2022/09/13 12:30:44;;;;;;;;;;;;;;;22.32;68.42;100943.75;7282623;19;153928;-57
2022/09/13 12:33:13;;;;;;;;;;;;;;;22.33;68.23;100936.97;7276904;19;152089;-57
2022/09/13 12:35:47;;;;;;;;;;;;;;;22.34;68.18;100935.00;7283379;19;153816;-57
2022/09/13 12:38:46;;;;;;;;;;;;;;;22.36;68.32;100929.84;7280792;19;154477;-57
2022/09/13 12:41:15;;;;;;;;;;;;;;;22.35;68.37;100929.03;7283470;19;152443;-57
2022/09/13 12:43:54;;;;;;;;;;;;;;;22.38;67.95;100919.13;7281364;19;153125;-57
2022/09/13 12:46:20;;;;;;;;;;;;;;;22.39;68.09;100918.81;7280953;19;154537;-57
2022/09/13 12:49:06;;;;;;;;;;;;;;;22.41;68.25;100918.47;7289761;19;152770;-57
2022/09/13 12:51:43;;;;;;;;;;;;;;;22.42;67.99;100908.88;7281890;19;154619;-57
2022/09/13 12:54:27;;;;;;;;;;;;;;;22.42;68.14;100901.25;7281218;19;152463;-57